Weather at Moriarty Municipal Airport

Public forecast

Using degrees Fahrenheit for public forecast. Weather courtesy of forecast.io.

Current aviation weather report (METAR) for Moriarty Municipal Airport

(retrieved 0 seconds ago)

Closest aviation forecast (TAF) to Moriarty Municipal Airport

Closest forecast is Albuquerque International Sunport, 30.1 nm (55.7 km) W.

2024/04/22 12:24 (retrieved 1 hour ago)

TAF KABQ 221122Z 2212/2312 01007KT P6SM FEW110 FM221500 19008KT P6SM SKC FM222200 20012G18KT P6SM BKN110 FM230200 18008KT P6SM SCT110